sensor_id;sensor_type;location;lat;lon;timestamp;P1;durP1;ratioP1;P2;durP2;ratioP2
18407;SDS011;9330;52.210;21.174;2023-09-07T00:01:29;8.48;;;6.97;;
18407;SDS011;9330;52.210;21.174;2023-09-07T00:03:56;7.65;;;6.88;;
18407;SDS011;9330;52.210;21.174;2023-09-07T00:06:23;6.97;;;6.28;;
18407;SDS011;9330;52.210;21.174;2023-09-07T00:08:50;7.65;;;6.28;;
18407;SDS011;9330;52.210;21.174;2023-09-07T00:11:16;9.10;;;6.00;;
18407;SDS011;9330;52.210;21.174;2023-09-07T00:13:43;7.40;;;6.38;;
18407;SDS011;9330;52.210;21.174;2023-09-07T00:16:11;7.03;;;6.32;;
18407;SDS011;9330;52.210;21.174;2023-09-07T00:18:38;7.95;;;6.40;;
18407;SDS011;9330;52.210;21.174;2023-09-07T00:21:05;8.98;;;6.88;;
18407;SDS011;9330;52.210;21.174;2023-09-07T00:23:32;7.25;;;6.55;;
18407;SDS011;9330;52.210;21.174;2023-09-07T00:25:58;7.25;;;6.57;;
18407;SDS011;9330;52.210;21.174;2023-09-07T00:28:25;9.77;;;6.60;;
18407;SDS011;9330;52.210;21.174;2023-09-07T00:30:52;7.10;;;6.32;;
18407;SDS011;9330;52.210;21.174;2023-09-07T00:33:20;7.55;;;6.60;;
18407;SDS011;9330;52.210;21.174;2023-09-07T00:35:47;8.00;;;6.97;;
18407;SDS011;9330;52.210;21.174;2023-09-07T00:38:13;7.90;;;6.60;;
18407;SDS011;9330;52.210;21.174;2023-09-07T00:40:42;8.35;;;6.57;;
18407;SDS011;9330;52.210;21.174;2023-09-07T00:43:09;7.05;;;6.40;;
18407;SDS011;9330;52.210;21.174;2023-09-07T00:45:36;8.10;;;6.60;;
18407;SDS011;9330;52.210;21.174;2023-09-07T00:48:03;8.30;;;7.00;;
18407;SDS011;9330;52.210;21.174;2023-09-07T00:50:32;7.78;;;6.97;;
18407;SDS011;9330;52.210;21.174;2023-09-07T00:53:00;9.23;;;7.03;;
18407;SDS011;9330;52.210;21.174;2023-09-07T00:55:28;7.13;;;6.45;;
18407;SDS011;9330;52.210;21.174;2023-09-07T00:57:57;7.50;;;6.80;;
18407;SDS011;9330;52.210;21.174;2023-09-07T01:00:24;7.60;;;6.63;;
18407;SDS011;9330;52.210;21.174;2023-09-07T01:02:51;7.90;;;7.10;;
18407;SDS011;9330;52.210;21.174;2023-09-07T01:05:18;7.03;;;6.32;;
18407;SDS011;9330;52.210;21.174;2023-09-07T01:07:51;7.78;;;6.63;;
18407;SDS011;9330;52.210;21.174;2023-09-07T01:10:23;7.78;;;6.78;;
18407;SDS011;9330;52.210;21.174;2023-09-07T01:12:50;10.10;;;7.28;;
18407;SDS011;9330;52.210;21.174;2023-09-07T01:15:17;8.48;;;6.32;;
18407;SDS011;9330;52.210;21.174;2023-09-07T01:17:44;8.27;;;7.00;;
18407;SDS011;9330;52.210;21.174;2023-09-07T01:20:11;9.40;;;6.88;;
18407;SDS011;9330;52.210;21.174;2023-09-07T01:22:43;8.15;;;7.10;;
18407;SDS011;9330;52.210;21.174;2023-09-07T01:25:10;7.57;;;6.88;;
18407;SDS011;9330;52.210;21.174;2023-09-07T01:27:37;8.18;;;7.18;;
18407;SDS011;9330;52.210;21.174;2023-09-07T01:30:05;8.20;;;7.40;;
18407;SDS011;9330;52.210;21.174;2023-09-07T01:32:33;7.63;;;6.82;;
18407;SDS011;9330;52.210;21.174;2023-09-07T01:35:00;8.23;;;7.00;;
18407;SDS011;9330;52.210;21.174;2023-09-07T01:37:29;7.40;;;6.70;;
18407;SDS011;9330;52.210;21.174;2023-09-07T01:39:58;8.07;;;7.25;;
18407;SDS011;9330;52.210;21.174;2023-09-07T01:42:25;10.57;;;7.57;;
18407;SDS011;9330;52.210;21.174;2023-09-07T01:44:52;8.77;;;7.38;;
18407;SDS011;9330;52.210;21.174;2023-09-07T01:47:19;8.25;;;7.38;;
18407;SDS011;9330;52.210;21.174;2023-09-07T01:49:46;7.50;;;6.82;;
18407;SDS011;9330;52.210;21.174;2023-09-07T01:52:12;8.73;;;7.55;;
18407;SDS011;9330;52.210;21.174;2023-09-07T01:54:39;8.02;;;7.22;;
18407;SDS011;9330;52.210;21.174;2023-09-07T01:57:07;8.05;;;7.20;;
18407;SDS011;9330;52.210;21.174;2023-09-07T01:59:34;8.55;;;7.00;;
18407;SDS011;9330;52.210;21.174;2023-09-07T02:02:01;8.93;;;7.47;;
18407;SDS011;9330;52.210;21.174;2023-09-07T02:04:28;8.75;;;7.75;;
18407;SDS011;9330;52.210;21.174;2023-09-07T02:06:54;11.32;;;7.55;;
18407;SDS011;9330;52.210;21.174;2023-09-07T02:09:21;8.50;;;7.35;;
18407;SDS011;9330;52.210;21.174;2023-09-07T02:11:48;8.48;;;7.57;;
18407;SDS011;9330;52.210;21.174;2023-09-07T02:14:16;10.75;;;7.45;;
18407;SDS011;9330;52.210;21.174;2023-09-07T02:16:43;9.90;;;7.55;;
18407;SDS011;9330;52.210;21.174;2023-09-07T02:19:10;8.48;;;7.57;;
18407;SDS011;9330;52.210;21.174;2023-09-07T02:21:37;8.05;;;7.25;;
18407;SDS011;9330;52.210;21.174;2023-09-07T02:24:04;9.20;;;7.97;;
18407;SDS011;9330;52.210;21.174;2023-09-07T02:26:31;10.10;;;8.25;;
18407;SDS011;9330;52.210;21.174;2023-09-07T02:28:57;8.48;;;7.53;;
18407;SDS011;9330;52.210;21.174;2023-09-07T02:31:26;9.10;;;7.80;;
18407;SDS011;9330;52.210;21.174;2023-09-07T02:33:52;10.52;;;8.48;;
18407;SDS011;9330;52.210;21.174;2023-09-07T02:36:19;8.63;;;7.57;;
18407;SDS011;9330;52.210;21.174;2023-09-07T02:38:46;8.00;;;7.20;;
18407;SDS011;9330;52.210;21.174;2023-09-07T02:41:13;8.68;;;7.78;;
18407;SDS011;9330;52.210;21.174;2023-09-07T02:43:39;8.40;;;7.60;;
18407;SDS011;9330;52.210;21.174;2023-09-07T02:46:06;9.60;;;7.60;;
18407;SDS011;9330;52.210;21.174;2023-09-07T02:48:34;8.38;;;7.47;;
18407;SDS011;9330;52.210;21.174;2023-09-07T02:51:01;8.10;;;7.30;;
18407;SDS011;9330;52.210;21.174;2023-09-07T02:53:28;8.60;;;7.70;;
18407;SDS011;9330;52.210;21.174;2023-09-07T02:55:55;8.68;;;7.88;;
18407;SDS011;9330;52.210;21.174;2023-09-07T02:58:22;12.18;;;8.40;;
18407;SDS011;9330;52.210;21.174;2023-09-07T03:00:49;9.95;;;8.52;;
18407;SDS011;9330;52.210;21.174;2023-09-07T03:03:16;9.23;;;7.93;;
18407;SDS011;9330;52.210;21.174;2023-09-07T03:05:45;11.18;;;8.20;;
18407;SDS011;9330;52.210;21.174;2023-09-07T03:08:11;9.60;;;8.70;;
18407;SDS011;9330;52.210;21.174;2023-09-07T03:10:38;8.77;;;7.82;;
18407;SDS011;9330;52.210;21.174;2023-09-07T03:13:06;8.15;;;7.18;;
18407;SDS011;9330;52.210;21.174;2023-09-07T03:15:33;8.80;;;7.82;;
18407;SDS011;9330;52.210;21.174;2023-09-07T03:18:00;8.65;;;7.85;;
18407;SDS011;9330;52.210;21.174;2023-09-07T03:20:27;8.35;;;7.50;;
18407;SDS011;9330;52.210;21.174;2023-09-07T03:22:55;8.50;;;7.63;;
18407;SDS011;9330;52.210;21.174;2023-09-07T03:25:22;10.60;;;8.30;;
18407;SDS011;9330;52.210;21.174;2023-09-07T03:27:49;10.10;;;8.00;;
18407;SDS011;9330;52.210;21.174;2023-09-07T03:30:17;8.95;;;8.13;;
18407;SDS011;9330;52.210;21.174;2023-09-07T03:32:43;12.48;;;8.43;;
18407;SDS011;9330;52.210;21.174;2023-09-07T03:35:11;9.68;;;8.68;;
18407;SDS011;9330;52.210;21.174;2023-09-07T03:37:38;9.13;;;8.18;;
18407;SDS011;9330;52.210;21.174;2023-09-07T03:40:08;8.52;;;7.55;;
18407;SDS011;9330;52.210;21.174;2023-09-07T03:42:35;9.48;;;8.30;;
18407;SDS011;9330;52.210;21.174;2023-09-07T03:45:02;10.40;;;8.68;;
18407;SDS011;9330;52.210;21.174;2023-09-07T03:47:29;10.13;;;9.13;;
18407;SDS011;9330;52.210;21.174;2023-09-07T03:49:56;9.48;;;8.30;;
18407;SDS011;9330;52.210;21.174;2023-09-07T03:52:24;9.27;;;8.27;;
18407;SDS011;9330;52.210;21.174;2023-09-07T03:54:51;11.23;;;8.80;;
18407;SDS011;9330;52.210;21.174;2023-09-07T03:57:21;9.82;;;8.63;;
18407;SDS011;9330;52.210;21.174;2023-09-07T03:59:48;8.98;;;7.97;;
18407;SDS011;9330;52.210;21.174;2023-09-07T04:02:15;9.75;;;8.82;;
18407;SDS011;9330;52.210;21.174;2023-09-07T04:04:42;10.32;;;8.98;;
18407;SDS011;9330;52.210;21.174;2023-09-07T04:07:09;10.00;;;8.82;;
18407;SDS011;9330;52.210;21.174;2023-09-07T04:09:37;13.30;;;9.45;;
18407;SDS011;9330;52.210;21.174;2023-09-07T04:12:04;11.05;;;9.48;;
18407;SDS011;9330;52.210;21.174;2023-09-07T04:14:32;10.10;;;8.48;;
18407;SDS011;9330;52.210;21.174;2023-09-07T04:17:00;9.80;;;8.80;;
18407;SDS011;9330;52.210;21.174;2023-09-07T04:19:27;10.07;;;8.95;;
18407;SDS011;9330;52.210;21.174;2023-09-07T04:21:54;10.77;;;8.55;;
18407;SDS011;9330;52.210;21.174;2023-09-07T04:24:20;8.93;;;8.02;;
18407;SDS011;9330;52.210;21.174;2023-09-07T04:26:47;11.55;;;9.02;;
18407;SDS011;9330;52.210;21.174;2023-09-07T04:29:15;12.43;;;9.35;;
18407;SDS011;9330;52.210;21.174;2023-09-07T04:31:43;11.13;;;9.18;;
18407;SDS011;9330;52.210;21.174;2023-09-07T04:34:10;10.43;;;8.23;;
18407;SDS011;9330;52.210;21.174;2023-09-07T04:36:36;11.65;;;9.00;;
18407;SDS011;9330;52.210;21.174;2023-09-07T04:39:03;11.05;;;9.35;;
18407;SDS011;9330;52.210;21.174;2023-09-07T04:41:30;12.70;;;9.90;;
18407;SDS011;9330;52.210;21.174;2023-09-07T04:43:57;13.25;;;9.75;;
18407;SDS011;9330;52.210;21.174;2023-09-07T04:46:24;10.55;;;9.45;;
18407;SDS011;9330;52.210;21.174;2023-09-07T04:48:52;11.27;;;9.40;;
18407;SDS011;9330;52.210;21.174;2023-09-07T04:51:19;13.48;;;10.38;;
18407;SDS011;9330;52.210;21.174;2023-09-07T04:53:47;11.90;;;9.50;;
18407;SDS011;9330;52.210;21.174;2023-09-07T04:56:14;10.75;;;9.65;;
18407;SDS011;9330;52.210;21.174;2023-09-07T04:58:42;11.38;;;9.90;;
18407;SDS011;9330;52.210;21.174;2023-09-07T05:01:09;12.88;;;9.98;;
18407;SDS011;9330;52.210;21.174;2023-09-07T05:03:37;10.55;;;9.55;;
18407;SDS011;9330;52.210;21.174;2023-09-07T05:06:06;11.32;;;10.23;;
18407;SDS011;9330;52.210;21.174;2023-09-07T05:08:33;12.65;;;10.02;;
18407;SDS011;9330;52.210;21.174;2023-09-07T05:11:01;11.38;;;10.02;;
18407;SDS011;9330;52.210;21.174;2023-09-07T05:13:28;10.77;;;9.68;;
18407;SDS011;9330;52.210;21.174;2023-09-07T05:15:55;10.52;;;9.25;;
18407;SDS011;9330;52.210;21.174;2023-09-07T05:18:24;11.65;;;10.35;;
18407;SDS011;9330;52.210;21.174;2023-09-07T05:20:50;12.50;;;10.07;;
18407;SDS011;9330;52.210;21.174;2023-09-07T05:23:19;11.48;;;9.98;;
18407;SDS011;9330;52.210;21.174;2023-09-07T05:25:46;12.60;;;9.60;;
18407;SDS011;9330;52.210;21.174;2023-09-07T05:28:14;12.32;;;9.77;;
18407;SDS011;9330;52.210;21.174;2023-09-07T05:30:41;10.50;;;9.35;;
18407;SDS011;9330;52.210;21.174;2023-09-07T05:33:08;12.32;;;11.02;;
18407;SDS011;9330;52.210;21.174;2023-09-07T05:35:35;14.68;;;11.43;;
18407;SDS011;9330;52.210;21.174;2023-09-07T05:38:02;12.35;;;10.88;;
18407;SDS011;9330;52.210;21.174;2023-09-07T05:40:34;12.90;;;11.60;;
18407;SDS011;9330;52.210;21.174;2023-09-07T05:43:02;14.38;;;12.32;;
18407;SDS011;9330;52.210;21.174;2023-09-07T05:45:29;16.08;;;12.13;;
18407;SDS011;9330;52.210;21.174;2023-09-07T05:47:56;15.48;;;12.20;;
18407;SDS011;9330;52.210;21.174;2023-09-07T05:50:23;19.15;;;13.10;;
18407;SDS011;9330;52.210;21.174;2023-09-07T05:52:50;15.20;;;12.40;;
18407;SDS011;9330;52.210;21.174;2023-09-07T05:55:17;15.98;;;13.15;;
18407;SDS011;9330;52.210;21.174;2023-09-07T05:57:45;17.40;;;14.15;;
18407;SDS011;9330;52.210;21.174;2023-09-07T06:00:12;18.10;;;15.05;;
18407;SDS011;9330;52.210;21.174;2023-09-07T06:02:40;16.23;;;14.52;;
18407;SDS011;9330;52.210;21.174;2023-09-07T06:05:07;15.23;;;13.73;;
18407;SDS011;9330;52.210;21.174;2023-09-07T06:07:35;16.27;;;14.38;;
18407;SDS011;9330;52.210;21.174;2023-09-07T06:10:02;17.13;;;15.32;;
18407;SDS011;9330;52.210;21.174;2023-09-07T06:12:30;15.32;;;13.73;;
18407;SDS011;9330;52.210;21.174;2023-09-07T06:14:58;20.60;;;14.18;;
18407;SDS011;9330;52.210;21.174;2023-09-07T06:17:25;16.13;;;13.13;;
18407;SDS011;9330;52.210;21.174;2023-09-07T06:19:52;21.27;;;13.68;;
18407;SDS011;9330;52.210;21.174;2023-09-07T06:22:19;17.90;;;12.60;;
18407;SDS011;9330;52.210;21.174;2023-09-07T06:24:46;15.82;;;13.55;;
18407;SDS011;9330;52.210;21.174;2023-09-07T06:27:13;14.45;;;12.90;;
18407;SDS011;9330;52.210;21.174;2023-09-07T06:29:40;13.13;;;11.75;;
18407;SDS011;9330;52.210;21.174;2023-09-07T06:32:08;12.82;;;10.82;;
18407;SDS011;9330;52.210;21.174;2023-09-07T06:34:35;14.73;;;12.38;;
18407;SDS011;9330;52.210;21.174;2023-09-07T06:37:01;15.30;;;11.07;;
18407;SDS011;9330;52.210;21.174;2023-09-07T06:39:28;13.05;;;10.43;;
18407;SDS011;9330;52.210;21.174;2023-09-07T06:41:55;12.80;;;10.07;;
18407;SDS011;9330;52.210;21.174;2023-09-07T06:44:22;14.23;;;9.75;;
18407;SDS011;9330;52.210;21.174;2023-09-07T06:46:49;11.70;;;10.32;;
18407;SDS011;9330;52.210;21.174;2023-09-07T06:49:17;16.30;;;12.80;;
18407;SDS011;9330;52.210;21.174;2023-09-07T06:51:44;16.65;;;12.65;;
18407;SDS011;9330;52.210;21.174;2023-09-07T06:54:11;12.18;;;10.20;;
18407;SDS011;9330;52.210;21.174;2023-09-07T06:56:39;13.60;;;9.65;;
18407;SDS011;9330;52.210;21.174;2023-09-07T06:59:06;12.93;;;9.45;;
18407;SDS011;9330;52.210;21.174;2023-09-07T07:01:33;11.77;;;8.98;;
18407;SDS011;9330;52.210;21.174;2023-09-07T07:04:00;9.73;;;8.50;;
18407;SDS011;9330;52.210;21.174;2023-09-07T07:06:28;12.95;;;8.80;;
18407;SDS011;9330;52.210;21.174;2023-09-07T07:08:55;10.57;;;9.15;;
18407;SDS011;9330;52.210;21.174;2023-09-07T07:11:22;12.90;;;9.27;;
18407;SDS011;9330;52.210;21.174;2023-09-07T07:13:49;13.32;;;9.38;;
18407;SDS011;9330;52.210;21.174;2023-09-07T07:16:16;13.32;;;9.48;;
18407;SDS011;9330;52.210;21.174;2023-09-07T07:18:43;10.88;;;8.05;;
18407;SDS011;9330;52.210;21.174;2023-09-07T07:21:10;12.70;;;8.77;;
18407;SDS011;9330;52.210;21.174;2023-09-07T07:23:38;9.32;;;8.13;;
18407;SDS011;9330;52.210;21.174;2023-09-07T07:26:05;9.15;;;8.25;;
18407;SDS011;9330;52.210;21.174;2023-09-07T07:28:33;8.95;;;8.05;;
18407;SDS011;9330;52.210;21.174;2023-09-07T07:31:06;10.43;;;8.07;;
18407;SDS011;9330;52.210;21.174;2023-09-07T07:33:34;9.32;;;7.53;;
18407;SDS011;9330;52.210;21.174;2023-09-07T07:36:02;9.88;;;6.93;;
18407;SDS011;9330;52.210;21.174;2023-09-07T07:38:29;8.63;;;7.70;;
18407;SDS011;9330;52.210;21.174;2023-09-07T07:40:57;12.75;;;7.65;;
18407;SDS011;9330;52.210;21.174;2023-09-07T07:43:25;7.93;;;7.13;;
18407;SDS011;9330;52.210;21.174;2023-09-07T07:45:53;10.43;;;7.57;;
18407;SDS011;9330;52.210;21.174;2023-09-07T07:48:20;10.38;;;7.25;;
18407;SDS011;9330;52.210;21.174;2023-09-07T07:50:47;12.75;;;7.85;;
18407;SDS011;9330;52.210;21.174;2023-09-07T07:53:14;8.23;;;7.18;;
18407;SDS011;9330;52.210;21.174;2023-09-07T07:55:41;7.75;;;6.93;;
18407;SDS011;9330;52.210;21.174;2023-09-07T07:58:09;8.13;;;6.40;;
18407;SDS011;9330;52.210;21.174;2023-09-07T08:00:36;7.80;;;6.95;;
18407;SDS011;9330;52.210;21.174;2023-09-07T08:03:03;8.38;;;6.70;;
18407;SDS011;9330;52.210;21.174;2023-09-07T08:05:32;8.05;;;6.80;;
18407;SDS011;9330;52.210;21.174;2023-09-07T08:07:59;6.57;;;5.82;;
18407;SDS011;9330;52.210;21.174;2023-09-07T08:10:26;8.38;;;7.18;;
18407;SDS011;9330;52.210;21.174;2023-09-07T08:12:53;8.05;;;6.30;;
18407;SDS011;9330;52.210;21.174;2023-09-07T08:15:22;9.07;;;6.53;;
18407;SDS011;9330;52.210;21.174;2023-09-07T08:17:50;7.90;;;5.68;;
18407;SDS011;9330;52.210;21.174;2023-09-07T08:20:17;8.93;;;5.68;;
18407;SDS011;9330;52.210;21.174;2023-09-07T08:22:44;7.63;;;5.85;;
18407;SDS011;9330;52.210;21.174;2023-09-07T08:25:11;6.60;;;5.88;;
18407;SDS011;9330;52.210;21.174;2023-09-07T08:27:39;7.88;;;5.47;;
18407;SDS011;9330;52.210;21.174;2023-09-07T08:30:10;6.90;;;5.82;;
18407;SDS011;9330;52.210;21.174;2023-09-07T08:32:39;8.07;;;6.05;;
18407;SDS011;9330;52.210;21.174;2023-09-07T08:35:06;7.65;;;6.18;;
18407;SDS011;9330;52.210;21.174;2023-09-07T08:37:34;7.68;;;5.82;;
18407;SDS011;9330;52.210;21.174;2023-09-07T08:40:01;5.88;;;5.30;;
18407;SDS011;9330;52.210;21.174;2023-09-07T08:42:32;6.63;;;5.63;;
18407;SDS011;9330;52.210;21.174;2023-09-07T08:45:01;7.25;;;5.75;;
18407;SDS011;9330;52.210;21.174;2023-09-07T08:47:31;6.72;;;5.57;;
18407;SDS011;9330;52.210;21.174;2023-09-07T08:50:01;7.45;;;5.65;;
18407;SDS011;9330;52.210;21.174;2023-09-07T08:52:28;7.97;;;5.60;;
18407;SDS011;9330;52.210;21.174;2023-09-07T08:54:56;7.85;;;5.90;;
18407;SDS011;9330;52.210;21.174;2023-09-07T08:57:25;6.80;;;5.53;;
18407;SDS011;9330;52.210;21.174;2023-09-07T08:59:53;5.97;;;4.95;;
18407;SDS011;9330;52.210;21.174;2023-09-07T09:02:20;6.72;;;5.30;;
18407;SDS011;9330;52.210;21.174;2023-09-07T09:04:47;6.25;;;5.03;;
18407;SDS011;9330;52.210;21.174;2023-09-07T09:07:15;5.72;;;5.20;;
18407;SDS011;9330;52.210;21.174;2023-09-07T09:09:42;6.70;;;4.70;;
18407;SDS011;9330;52.210;21.174;2023-09-07T09:12:09;8.80;;;5.00;;
18407;SDS011;9330;52.210;21.174;2023-09-07T09:14:38;6.43;;;5.05;;
18407;SDS011;9330;52.210;21.174;2023-09-07T09:17:10;6.85;;;5.53;;
18407;SDS011;9330;52.210;21.174;2023-09-07T09:19:38;5.53;;;4.85;;
18407;SDS011;9330;52.210;21.174;2023-09-07T09:22:06;5.63;;;4.75;;
18407;SDS011;9330;52.210;21.174;2023-09-07T09:24:35;7.28;;;4.82;;
18407;SDS011;9330;52.210;21.174;2023-09-07T09:27:02;6.03;;;4.80;;
18407;SDS011;9330;52.210;21.174;2023-09-07T09:29:31;6.03;;;4.75;;
18407;SDS011;9330;52.210;21.174;2023-09-07T09:31:59;5.43;;;4.90;;
18407;SDS011;9330;52.210;21.174;2023-09-07T09:34:30;6.53;;;4.63;;
18407;SDS011;9330;52.210;21.174;2023-09-07T09:36:59;5.95;;;4.35;;
18407;SDS011;9330;52.210;21.174;2023-09-07T09:39:27;6.38;;;3.97;;
18407;SDS011;9330;52.210;21.174;2023-09-07T09:41:55;7.47;;;3.83;;
18407;SDS011;9330;52.210;21.174;2023-09-07T09:44:23;5.18;;;4.00;;
18407;SDS011;9330;52.210;21.174;2023-09-07T09:46:51;5.00;;;4.32;;
18407;SDS011;9330;52.210;21.174;2023-09-07T09:49:18;5.20;;;4.50;;
18407;SDS011;9330;52.210;21.174;2023-09-07T09:51:46;4.93;;;3.83;;
18407;SDS011;9330;52.210;21.174;2023-09-07T09:54:15;4.05;;;3.65;;
18407;SDS011;9330;52.210;21.174;2023-09-07T09:56:43;6.32;;;3.88;;
18407;SDS011;9330;52.210;21.174;2023-09-07T09:59:12;4.93;;;3.40;;
18407;SDS011;9330;52.210;21.174;2023-09-07T10:01:40;3.70;;;3.40;;
18407;SDS011;9330;52.210;21.174;2023-09-07T10:04:09;3.70;;;3.30;;
18407;SDS011;9330;52.210;21.174;2023-09-07T10:06:39;7.18;;;4.28;;
18407;SDS011;9330;52.210;21.174;2023-09-07T10:09:16;4.28;;;3.65;;
18407;SDS011;9330;52.210;21.174;2023-09-07T10:11:50;4.07;;;3.72;;
18407;SDS011;9330;52.210;21.174;2023-09-07T10:14:19;4.10;;;3.40;;
18407;SDS011;9330;52.210;21.174;2023-09-07T10:16:47;2.70;;;2.50;;
18407;SDS011;9330;52.210;21.174;2023-09-07T10:19:15;3.55;;;2.97;;
18407;SDS011;9330;52.210;21.174;2023-09-07T10:21:42;3.97;;;3.28;;
18407;SDS011;9330;52.210;21.174;2023-09-07T10:24:09;2.70;;;2.42;;
18407;SDS011;9330;52.210;21.174;2023-09-07T10:26:36;4.38;;;2.65;;
18407;SDS011;9330;52.210;21.174;2023-09-07T10:29:03;3.05;;;2.75;;
18407;SDS011;9330;52.210;21.174;2023-09-07T10:31:32;3.55;;;2.90;;
18407;SDS011;9330;52.210;21.174;2023-09-07T10:34:08;4.28;;;2.97;;
18407;SDS011;9330;52.210;21.174;2023-09-07T10:36:35;4.25;;;3.25;;
18407;SDS011;9330;52.210;21.174;2023-09-07T10:39:03;3.38;;;2.88;;
18407;SDS011;9330;52.210;21.174;2023-09-07T10:41:40;3.70;;;3.15;;
18407;SDS011;9330;52.210;21.174;2023-09-07T10:44:07;3.72;;;2.80;;
18407;SDS011;9330;52.210;21.174;2023-09-07T10:46:37;4.43;;;3.10;;
18407;SDS011;9330;52.210;21.174;2023-09-07T10:49:06;3.30;;;3.00;;
18407;SDS011;9330;52.210;21.174;2023-09-07T10:51:39;3.53;;;2.78;;
18407;SDS011;9330;52.210;21.174;2023-09-07T10:54:13;4.40;;;2.58;;
18407;SDS011;9330;52.210;21.174;2023-09-07T10:56:42;4.03;;;2.80;;
18407;SDS011;9330;52.210;21.174;2023-09-07T10:59:10;3.00;;;2.60;;
18407;SDS011;9330;52.210;21.174;2023-09-07T11:01:39;3.55;;;2.75;;
18407;SDS011;9330;52.210;21.174;2023-09-07T11:04:06;4.05;;;2.78;;
18407;SDS011;9330;52.210;21.174;2023-09-07T11:06:36;2.70;;;2.50;;
18407;SDS011;9330;52.210;21.174;2023-09-07T11:09:03;3.25;;;2.95;;
18407;SDS011;9330;52.210;21.174;2023-09-07T11:11:34;3.13;;;2.20;;
18407;SDS011;9330;52.210;21.174;2023-09-07T11:14:01;2.67;;;2.47;;
18407;SDS011;9330;52.210;21.174;2023-09-07T11:16:29;2.70;;;2.50;;
18407;SDS011;9330;52.210;21.174;2023-09-07T11:18:59;3.70;;;2.35;;
18407;SDS011;9330;52.210;21.174;2023-09-07T11:21:29;2.20;;;2.00;;
18407;SDS011;9330;52.210;21.174;2023-09-07T11:23:57;3.30;;;2.58;;
18407;SDS011;9330;52.210;21.174;2023-09-07T11:26:24;6.15;;;2.60;;
18407;SDS011;9330;52.210;21.174;2023-09-07T11:28:51;3.30;;;2.65;;
18407;SDS011;9330;52.210;21.174;2023-09-07T11:31:19;2.60;;;2.40;;
18407;SDS011;9330;52.210;21.174;2023-09-07T11:33:47;3.28;;;2.63;;
18407;SDS011;9330;52.210;21.174;2023-09-07T11:36:15;5.95;;;2.67;;
18407;SDS011;9330;52.210;21.174;2023-09-07T11:38:42;2.80;;;2.50;;
18407;SDS011;9330;52.210;21.174;2023-09-07T11:41:11;2.50;;;2.30;;
18407;SDS011;9330;52.210;21.174;2023-09-07T11:43:38;3.30;;;2.63;;
18407;SDS011;9330;52.210;21.174;2023-09-07T11:46:06;2.35;;;1.83;;
18407;SDS011;9330;52.210;21.174;2023-09-07T11:48:33;3.35;;;2.10;;
18407;SDS011;9330;52.210;21.174;2023-09-07T11:51:00;9.63;;;2.38;;
18407;SDS011;9330;52.210;21.174;2023-09-07T11:53:29;4.53;;;2.50;;
18407;SDS011;9330;52.210;21.174;2023-09-07T11:55:56;2.83;;;2.20;;
18407;SDS011;9330;52.210;21.174;2023-09-07T11:58:24;3.60;;;1.98;;
18407;SDS011;9330;52.210;21.174;2023-09-07T12:00:51;2.25;;;2.05;;
18407;SDS011;9330;52.210;21.174;2023-09-07T12:03:19;2.33;;;2.13;;
18407;SDS011;9330;52.210;21.174;2023-09-07T12:05:46;2.70;;;2.17;;
18407;SDS011;9330;52.210;21.174;2023-09-07T12:08:13;2.35;;;2.00;;
18407;SDS011;9330;52.210;21.174;2023-09-07T12:10:42;3.30;;;2.03;;
18407;SDS011;9330;52.210;21.174;2023-09-07T12:13:09;2.05;;;1.85;;
18407;SDS011;9330;52.210;21.174;2023-09-07T12:15:35;2.58;;;2.22;;
18407;SDS011;9330;52.210;21.174;2023-09-07T12:18:02;3.70;;;2.15;;
18407;SDS011;9330;52.210;21.174;2023-09-07T12:20:30;3.75;;;2.22;;
18407;SDS011;9330;52.210;21.174;2023-09-07T12:22:56;1.90;;;1.75;;
18407;SDS011;9330;52.210;21.174;2023-09-07T12:25:23;2.65;;;2.00;;
18407;SDS011;9330;52.210;21.174;2023-09-07T12:27:52;5.28;;;2.08;;
18407;SDS011;9330;52.210;21.174;2023-09-07T12:30:19;4.57;;;2.53;;
18407;SDS011;9330;52.210;21.174;2023-09-07T12:32:48;2.28;;;2.03;;
18407;SDS011;9330;52.210;21.174;2023-09-07T12:35:16;2.30;;;2.10;;
18407;SDS011;9330;52.210;21.174;2023-09-07T12:37:43;2.03;;;1.83;;
18407;SDS011;9330;52.210;21.174;2023-09-07T12:40:10;2.85;;;1.63;;
18407;SDS011;9330;52.210;21.174;2023-09-07T12:42:39;1.75;;;1.65;;
18407;SDS011;9330;52.210;21.174;2023-09-07T12:45:08;1.92;;;1.70;;
18407;SDS011;9330;52.210;21.174;2023-09-07T12:47:36;2.90;;;2.15;;
18407;SDS011;9330;52.210;21.174;2023-09-07T12:50:04;3.38;;;1.90;;
18407;SDS011;9330;52.210;21.174;2023-09-07T12:52:32;1.95;;;1.67;;
18407;SDS011;9330;52.210;21.174;2023-09-07T12:54:59;2.03;;;1.80;;
18407;SDS011;9330;52.210;21.174;2023-09-07T12:57:26;2.65;;;1.60;;
18407;SDS011;9330;52.210;21.174;2023-09-07T12:59:53;2.15;;;1.85;;
18407;SDS011;9330;52.210;21.174;2023-09-07T13:02:21;2.47;;;1.90;;
18407;SDS011;9330;52.210;21.174;2023-09-07T13:04:48;2.67;;;2.00;;
18407;SDS011;9330;52.210;21.174;2023-09-07T13:07:14;2.47;;;1.95;;
18407;SDS011;9330;52.210;21.174;2023-09-07T13:09:42;3.58;;;2.53;;
18407;SDS011;9330;52.210;21.174;2023-09-07T13:12:10;1.55;;;1.42;;
18407;SDS011;9330;52.210;21.174;2023-09-07T13:14:36;2.10;;;1.90;;
18407;SDS011;9330;52.210;21.174;2023-09-07T13:17:03;2.10;;;1.85;;
18407;SDS011;9330;52.210;21.174;2023-09-07T13:19:32;3.58;;;1.80;;
18407;SDS011;9330;52.210;21.174;2023-09-07T13:21:58;1.73;;;1.63;;
18407;SDS011;9330;52.210;21.174;2023-09-07T13:24:25;2.08;;;1.60;;
18407;SDS011;9330;52.210;21.174;2023-09-07T13:26:52;2.08;;;1.60;;
18407;SDS011;9330;52.210;21.174;2023-09-07T13:29:19;2.10;;;2.00;;
18407;SDS011;9330;52.210;21.174;2023-09-07T13:31:45;1.95;;;1.70;;
18407;SDS011;9330;52.210;21.174;2023-09-07T13:34:13;2.15;;;2.00;;
18407;SDS011;9330;52.210;21.174;2023-09-07T13:36:41;4.45;;;2.17;;
18407;SDS011;9330;52.210;21.174;2023-09-07T13:39:08;3.53;;;2.00;;
18407;SDS011;9330;52.210;21.174;2023-09-07T13:41:34;3.65;;;1.70;;
18407;SDS011;9330;52.210;21.174;2023-09-07T13:44:01;2.60;;;1.80;;
18407;SDS011;9330;52.210;21.174;2023-09-07T13:46:28;2.10;;;1.70;;
18407;SDS011;9330;52.210;21.174;2023-09-07T13:48:55;3.42;;;2.00;;
18407;SDS011;9330;52.210;21.174;2023-09-07T13:51:22;2.17;;;1.98;;
18407;SDS011;9330;52.210;21.174;2023-09-07T13:53:50;3.40;;;2.00;;
18407;SDS011;9330;52.210;21.174;2023-09-07T13:56:17;3.40;;;1.80;;
18407;SDS011;9330;52.210;21.174;2023-09-07T13:58:44;3.10;;;2.08;;
18407;SDS011;9330;52.210;21.174;2023-09-07T14:01:12;2.47;;;2.28;;
18407;SDS011;9330;52.210;21.174;2023-09-07T14:03:38;3.15;;;2.10;;
18407;SDS011;9330;52.210;21.174;2023-09-07T14:06:05;3.45;;;1.95;;
18407;SDS011;9330;52.210;21.174;2023-09-07T14:08:32;2.05;;;1.90;;
18407;SDS011;9330;52.210;21.174;2023-09-07T14:11:01;2.30;;;1.88;;
18407;SDS011;9330;52.210;21.174;2023-09-07T14:13:27;3.17;;;2.20;;
18407;SDS011;9330;52.210;21.174;2023-09-07T14:15:54;2.40;;;1.95;;
18407;SDS011;9330;52.210;21.174;2023-09-07T14:18:21;2.05;;;1.92;;
18407;SDS011;9330;52.210;21.174;2023-09-07T14:20:48;5.20;;;2.30;;
18407;SDS011;9330;52.210;21.174;2023-09-07T14:23:15;3.30;;;2.13;;
18407;SDS011;9330;52.210;21.174;2023-09-07T14:25:42;3.92;;;2.00;;
18407;SDS011;9330;52.210;21.174;2023-09-07T14:28:11;5.10;;;2.22;;
18407;SDS011;9330;52.210;21.174;2023-09-07T14:30:38;2.97;;;2.28;;
18407;SDS011;9330;52.210;21.174;2023-09-07T14:33:05;3.88;;;2.25;;
18407;SDS011;9330;52.210;21.174;2023-09-07T14:35:32;2.67;;;2.28;;
18407;SDS011;9330;52.210;21.174;2023-09-07T14:37:59;2.28;;;2.05;;
18407;SDS011;9330;52.210;21.174;2023-09-07T14:40:26;3.90;;;2.88;;
18407;SDS011;9330;52.210;21.174;2023-09-07T14:42:53;2.47;;;2.28;;
18407;SDS011;9330;52.210;21.174;2023-09-07T14:45:23;2.90;;;2.60;;